Time;durP1;ratioP1;P1;durP2;ratioP2;P2;SDS_P1;SDS_P2;PMS_P1;PMS_P2;Temp;Humidity;BMP_temperature;BMP_pressure;BME280_temperature;BME280_humidity;BME280_pressure;Samples;Min_cycle;Max_cycle;Signal;HPM_P1;HPM_P2
2022/01/05 00:00:21;;;;;;;2.40;2.20;;;4.30;94.10;;;;;;5053718;28;20652;-67
2022/01/05 00:02:48;;;;;;;1.95;1.85;;;4.20;94.30;;;;;;5053798;28;20197;-66
2022/01/05 00:05:15;;;;;;;2.00;1.90;;;4.20;94.80;;;;;;5052857;28;20567;-63
2022/01/05 00:07:43;;;;;;;1.92;1.83;;;4.20;94.60;;;;;;5053608;28;20229;-65
2022/01/05 00:10:10;;;;;;;2.30;2.10;;;4.20;94.60;;;;;;5053654;28;20240;-64
2022/01/05 00:12:37;;;;;;;2.10;2.00;;;4.20;94.40;;;;;;5052495;28;20240;-60
2022/01/05 00:15:04;;;;;;;1.98;1.85;;;4.30;94.40;;;;;;5053420;28;20229;-62
2022/01/05 00:17:31;;;;;;;1.80;1.70;;;4.30;94.50;;;;;;5053558;28;20205;-66
2022/01/05 00:19:58;;;;;;;2.45;1.90;;;4.20;94.50;;;;;;5053685;28;20298;-63
2022/01/05 00:22:25;;;;;;;1.88;1.77;;;4.20;94.50;;;;;;5053349;28;20216;-66
2022/01/05 00:24:53;;;;;;;1.85;1.60;;;4.20;93.90;;;;;;5053600;28;20732;-59
2022/01/05 00:27:20;;;;;;;2.00;1.90;;;4.20;94.00;;;;;;5052109;28;20200;-61
2022/01/05 00:29:47;;;;;;;2.35;2.15;;;4.20;94.00;;;;;;5053476;28;20212;-60
2022/01/05 00:32:14;;;;;;;1.80;1.70;;;4.30;94.40;;;;;;5053175;28;20206;-66
2022/01/05 00:34:41;;;;;;;2.10;1.90;;;4.30;94.00;;;;;;5053175;28;20324;-62
2022/01/05 00:37:08;;;;;;;1.80;1.70;;;4.30;93.60;;;;;;5053292;28;20205;-63
2022/01/05 00:39:34;;;;;;;2.00;1.85;;;4.30;94.00;;;;;;5053206;28;20201;-67
2022/01/05 00:42:03;;;;;;;1.95;1.65;;;4.30;93.70;;;;;;5051774;28;20576;-62
2022/01/05 00:44:30;;;;;;;1.60;1.50;;;4.30;93.80;;;;;;5053133;28;20205;-64
2022/01/05 00:46:57;;;;;;;1.58;1.48;;;4.30;93.40;;;;;;5052962;28;20205;-65
2022/01/05 00:49:24;;;;;;;1.90;1.80;;;4.20;93.60;;;;;;5052869;28;20209;-67
2022/01/05 00:51:51;;;;;;;1.58;1.48;;;4.30;93.70;;;;;;5053057;28;20292;-62
2022/01/05 00:54:18;;;;;;;1.55;1.45;;;4.20;93.60;;;;;;5052987;28;20329;-61
2022/01/05 00:56:44;;;;;;;1.58;1.48;;;4.10;93.80;;;;;;5051632;28;20201;-65
2022/01/05 00:59:13;;;;;;;1.73;1.63;;;4.00;94.20;;;;;;5052990;28;20288;-67
2022/01/05 01:01:39;;;;;;;1.60;1.50;;;4.00;94.60;;;;;;5052712;28;20201;-62
2022/01/05 01:04:07;;;;;;;1.65;1.55;;;4.00;94.40;;;;;;5052620;28;20252;-62
2022/01/05 01:06:34;;;;;;;2.28;1.40;;;3.90;94.00;;;;;;5052920;28;20205;-61
2022/01/05 01:09:01;;;;;;;1.65;1.55;;;3.90;94.80;;;;;;5052731;28;20209;-64
2022/01/05 01:11:27;;;;;;;1.35;1.35;;;3.90;94.80;;;;;;5051360;28;20261;-63
2022/01/05 01:13:55;;;;;;;1.50;1.40;;;3.90;95.00;;;;;;5052614;28;20227;-64
2022/01/05 01:16:23;;;;;;;2.55;1.75;;;3.80;95.00;;;;;;5056612;28;20201;-63
2022/01/05 01:18:50;;;;;;;1.38;1.38;;;3.90;95.20;;;;;;5059306;28;20687;-61
2022/01/05 01:21:16;;;;;;;1.63;1.52;;;3.90;95.10;;;;;;5059404;28;20213;-61
2022/01/05 01:23:54;;;;;;;1.45;1.35;;;4.00;94.90;;;;;;5059529;28;20232;-65
2022/01/05 01:26:21;;;;;;;1.30;1.20;;;4.10;95.10;;;;;;5058137;28;20220;-60
2022/01/05 01:28:48;;;;;;;1.85;1.75;;;4.10;94.70;;;;;;5059249;28;20558;-65
2022/01/05 01:31:15;;;;;;;1.38;1.38;;;4.10;94.30;;;;;;5059064;28;20204;-66
2022/01/05 01:33:43;;;;;;;1.55;1.45;;;4.10;94.00;;;;;;5059228;28;20229;-63
2022/01/05 01:36:10;;;;;;;1.20;1.20;;;4.10;94.00;;;;;;5059278;28;20679;-57
2022/01/05 01:38:37;;;;;;;1.20;1.20;;;4.10;93.90;;;;;;5059275;28;20573;-64
2022/01/05 01:41:04;;;;;;;1.30;1.30;;;4.20;94.00;;;;;;5057940;28;20296;-68
2022/01/05 01:43:32;;;;;;;1.48;1.30;;;4.10;93.60;;;;;;5059127;28;20205;-62
2022/01/05 01:45:59;;;;;;;1.38;1.30;;;4.10;93.90;;;;;;5058962;28;20220;-61
2022/01/05 01:48:26;;;;;;;1.40;1.30;;;4.00;94.10;;;;;;5059066;28;20201;-66
2022/01/05 01:50:54;;;;;;;1.88;1.50;;;4.00;94.40;;;;;;5059055;28;20205;-63
2022/01/05 01:53:21;;;;;;;1.45;1.35;;;3.90;94.50;;;;;;5058967;28;20207;-67
2022/01/05 01:55:49;;;;;;;1.92;1.35;;;3.90;94.70;;;;;;5057795;28;20209;-66
2022/01/05 01:58:18;;;;;;;1.45;1.35;;;4.00;95.00;;;;;;5059008;28;20202;-62
2022/01/05 02:00:45;;;;;;;1.60;1.50;;;4.00;94.60;;;;;;5058870;28;20305;-61
2022/01/05 02:03:14;;;;;;;1.30;1.30;;;3.90;94.80;;;;;;5059056;28;20201;-59
2022/01/05 02:05:41;;;;;;;1.40;1.30;;;3.90;95.00;;;;;;5059018;28;20209;-57
2022/01/05 02:08:09;;;;;;;1.55;1.45;;;3.90;95.20;;;;;;5059007;28;20231;-68
2022/01/05 02:10:36;;;;;;;1.17;1.15;;;4.00;95.20;;;;;;5058820;28;20700;-68
2022/01/05 02:13:04;;;;;;;1.30;1.20;;;4.10;95.40;;;;;;5057786;28;20680;-60
2022/01/05 02:15:31;;;;;;;1.38;1.27;;;4.10;94.80;;;;;;5058757;28;20255;-62
2022/01/05 02:18:10;;;;;;;1.30;1.20;;;4.10;95.40;;;;;;5058846;28;20727;-60
2022/01/05 02:20:37;;;;;;;1.40;1.30;;;4.20;94.90;;;;;;5058784;28;20287;-58
2022/01/05 02:23:05;;;;;;;1.42;1.30;;;4.20;94.80;;;;;;5058730;28;20226;-62
2022/01/05 02:25:32;;;;;;;1.50;1.40;;;4.10;94.40;;;;;;5058665;28;20221;-62
2022/01/05 02:27:59;;;;;;;1.45;1.35;;;4.10;94.80;;;;;;5054342;28;20287;-60
2022/01/05 02:30:28;;;;;;;1.40;1.30;;;4.20;94.90;;;;;;5055508;28;20201;-66
2022/01/05 02:32:55;;;;;;;1.33;1.23;;;4.10;94.50;;;;;;5055716;28;20240;-64
2022/01/05 02:35:22;;;;;;;1.40;1.30;;;4.10;94.70;;;;;;5055478;28;20239;-56
2022/01/05 02:37:54;;;;;;;1.55;1.38;;;4.10;94.80;;;;;;5055456;28;20225;-65
2022/01/05 02:40:24;;;;;;;1.33;1.25;;;4.10;95.00;;;;;;5055455;28;20198;-60
2022/01/05 02:42:53;;;;;;;1.38;1.27;;;4.20;95.00;;;;;;5054000;28;20215;-63
2022/01/05 02:45:21;;;;;;;1.20;1.20;;;4.20;95.00;;;;;;5055382;28;20209;-62
2022/01/05 02:47:49;;;;;;;1.58;1.45;;;4.20;94.70;;;;;;5055183;28;20652;-62
2022/01/05 02:50:16;;;;;;;2.35;1.45;;;4.20;94.70;;;;;;5055343;28;20197;-67
2022/01/05 02:52:43;;;;;;;1.35;1.25;;;4.20;94.80;;;;;;5055052;28;20205;-57
2022/01/05 02:55:12;;;;;;;1.50;1.40;;;4.20;95.20;;;;;;5055031;28;20737;-59
2022/01/05 02:57:40;;;;;;;1.45;1.35;;;4.10;95.40;;;;;;5053849;28;20244;-65
2022/01/05 03:00:09;;;;;;;1.70;1.15;;;4.10;95.80;;;;;;5055074;28;20280;-58
2022/01/05 03:02:36;;;;;;;1.20;1.10;;;4.10;96.10;;;;;;5054750;28;20216;-65
2022/01/05 03:05:03;;;;;;;1.50;1.40;;;4.10;96.30;;;;;;5054841;28;20207;-66
2022/01/05 03:07:31;;;;;;;1.63;1.48;;;4.10;96.30;;;;;;5054964;28;20201;-67
2022/01/05 03:09:58;;;;;;;1.60;1.48;;;4.10;96.30;;;;;;5054780;28;20259;-64
2022/01/05 03:12:25;;;;;;;1.77;1.25;;;4.10;96.30;;;;;;5053636;28;20288;-61
2022/01/05 03:14:53;;;;;;;1.60;1.50;;;4.10;96.30;;;;;;5054921;28;20229;-56
2022/01/05 03:17:20;;;;;;;1.30;1.20;;;4.00;96.30;;;;;;5054559;28;20292;-68
2022/01/05 03:19:47;;;;;;;1.50;1.40;;;4.00;96.30;;;;;;5054752;28;20549;-69
2022/01/05 03:22:14;;;;;;;2.78;1.50;;;4.00;96.30;;;;;;5054539;28;20592;-59
2022/01/05 03:24:41;;;;;;;1.30;1.20;;;4.00;96.30;;;;;;5054659;28;20201;-61
2022/01/05 03:27:08;;;;;;;1.40;1.30;;;4.00;96.30;;;;;;5053334;28;20291;-61
2022/01/05 03:29:35;;;;;;;1.05;1.00;;;4.00;96.30;;;;;;5054642;28;20251;-65
2022/01/05 03:32:04;;;;;;;1.05;1.05;;;4.00;96.30;;;;;;5054359;28;20292;-62
2022/01/05 03:34:32;;;;;;;1.00;1.00;;;4.00;96.30;;;;;;5054342;28;20253;-61
2022/01/05 03:37:00;;;;;;;1.10;1.10;;;4.00;96.30;;;;;;5054389;28;20206;-62
2022/01/05 03:39:27;;;;;;;1.20;1.10;;;4.00;95.50;;;;;;5054072;28;20205;-60
2022/01/05 03:41:53;;;;;;;1.00;1.00;;;4.00;95.80;;;;;;5053055;28;20568;-61
2022/01/05 03:44:20;;;;;;;1.00;1.00;;;4.00;95.10;;;;;;5054148;28;20213;-59
2022/01/05 03:46:47;;;;;;;1.02;1.02;;;3.90;95.50;;;;;;5053901;28;20667;-61
2022/01/05 03:49:16;;;;;;;1.23;1.13;;;3.90;95.30;;;;;;5054139;28;20212;-62
2022/01/05 03:51:42;;;;;;;1.00;1.00;;;3.90;95.70;;;;;;5054086;28;20641;-60
2022/01/05 03:54:09;;;;;;;1.13;1.02;;;3.90;95.70;;;;;;5054045;28;20616;-62
2022/01/05 03:56:36;;;;;;;1.08;1.05;;;3.90;95.30;;;;;;5052880;28;20581;-58
2022/01/05 03:59:03;;;;;;;0.90;0.90;;;3.80;95.20;;;;;;5053925;28;20585;-65
2022/01/05 04:01:30;;;;;;;1.00;1.00;;;3.80;95.30;;;;;;5053627;28;20626;-63
2022/01/05 04:03:57;;;;;;;1.45;1.08;;;3.90;95.30;;;;;;5053793;28;20223;-57
2022/01/05 04:06:25;;;;;;;0.80;0.80;;;3.90;95.10;;;;;;5053797;28;20203;-62
2022/01/05 04:08:52;;;;;;;1.00;0.90;;;3.90;95.30;;;;;;5053724;28;20637;-60
2022/01/05 04:11:18;;;;;;;0.80;0.80;;;3.90;95.50;;;;;;5052183;28;20320;-56
2022/01/05 04:13:45;;;;;;;0.80;0.80;;;3.90;95.30;;;;;;5053638;28;20295;-62
2022/01/05 04:16:12;;;;;;;1.50;1.00;;;4.00;95.10;;;;;;5053233;28;20328;-60
2022/01/05 04:18:39;;;;;;;0.82;0.82;;;4.00;95.10;;;;;;5053591;28;20293;-62
2022/01/05 04:21:06;;;;;;;1.00;0.90;;;4.00;95.00;;;;;;5053683;28;20227;-62
2022/01/05 04:23:34;;;;;;;1.35;0.82;;;3.90;94.50;;;;;;5053545;28;20634;-66
2022/01/05 04:26:01;;;;;;;0.80;0.80;;;4.00;95.00;;;;;;5052344;28;20212;-63
2022/01/05 04:28:28;;;;;;;0.90;0.90;;;4.00;94.40;;;;;;5053225;28;20295;-62
2022/01/05 04:30:54;;;;;;;0.90;0.90;;;4.00;95.00;;;;;;5053427;28;20293;-63
2022/01/05 04:33:21;;;;;;;1.27;1.17;;;4.10;94.60;;;;;;5053396;28;20313;-67
2022/01/05 04:35:48;;;;;;;0.90;0.90;;;4.00;93.90;;;;;;5053245;28;20778;-58
2022/01/05 04:38:15;;;;;;;0.93;0.93;;;4.00;94.30;;;;;;5053311;28;20219;-68
2022/01/05 04:40:44;;;;;;;0.90;0.90;;;4.00;94.30;;;;;;5052368;28;20209;-57
2022/01/05 04:43:11;;;;;;;1.38;1.27;;;4.00;95.10;;;;;;5053172;28;20215;-60
2022/01/05 04:45:38;;;;;;;1.38;1.27;;;4.00;95.30;;;;;;5053146;28;20237;-66
2022/01/05 04:48:05;;;;;;;1.00;1.00;;;3.90;95.40;;;;;;5052954;28;20207;-65
2022/01/05 04:50:32;;;;;;;1.00;1.00;;;3.80;95.70;;;;;;5052663;28;20197;-69
2022/01/05 04:52:59;;;;;;;1.60;1.50;;;3.70;96.30;;;;;;5052905;28;20670;-73
2022/01/05 04:55:26;;;;;;;1.30;1.20;;;3.70;96.30;;;;;;5052946;28;20259;-70
2022/01/05 04:57:54;;;;;;;1.60;1.50;;;3.70;96.30;;;;;;5051648;28;20716;-75
2022/01/05 05:00:21;;;;;;;1.20;1.20;;;3.70;96.30;;;;;;5053002;28;20565;-69
2022/01/05 05:02:49;;;;;;;1.30;1.30;;;3.80;96.30;;;;;;5052794;28;20207;-70
2022/01/05 05:05:16;;;;;;;1.80;1.70;;;3.90;96.30;;;;;;5052886;28;20243;-74
2022/01/05 05:07:43;;;;;;;1.85;1.50;;;3.90;96.00;;;;;;5052960;28;20205;-65
2022/01/05 05:10:10;;;;;;;1.58;1.48;;;3.70;96.00;;;;;;5052632;28;20232;-73
2022/01/05 05:12:37;;;;;;;1.50;1.40;;;3.70;96.10;;;;;;5051466;28;20196;-67
2022/01/05 05:15:06;;;;;;;1.70;1.60;;;3.70;95.90;;;;;;5052737;28;20268;-71
2022/01/05 05:17:33;;;;;;;1.40;1.30;;;3.80;96.20;;;;;;5052735;28;20572;-66
2022/01/05 05:20:00;;;;;;;1.60;1.50;;;3.90;96.30;;;;;;5052917;28;20208;-74
2022/01/05 05:22:26;;;;;;;1.90;1.80;;;4.00;95.80;;;;;;5052538;28;20767;-69
2022/01/05 05:24:53;;;;;;;2.50;1.85;;;3.90;95.30;;;;;;5052629;28;20256;-64
2022/01/05 05:27:20;;;;;;;1.98;1.88;;;4.00;95.90;;;;;;5051320;28;20212;-67
2022/01/05 05:29:47;;;;;;;2.25;2.05;;;4.10;96.20;;;;;;5052595;28;20206;-67
2022/01/05 05:32:15;;;;;;;2.03;1.92;;;4.30;96.10;;;;;;5052466;28;20208;-65
2022/01/05 05:34:42;;;;;;;2.40;2.30;;;4.30;93.40;;;;;;5052503;28;20244;-62
2022/01/05 05:37:09;;;;;;;2.42;2.30;;;4.00;91.00;;;;;;5052662;28;20209;-68
2022/01/05 05:39:36;;;;;;;2.20;2.10;;;3.70;89.50;;;;;;5052381;28;20228;-66
2022/01/05 05:42:03;;;;;;;3.20;3.00;;;3.30;89.70;;;;;;5051204;28;20288;-69
2022/01/05 05:44:30;;;;;;;2.92;2.83;;;3.10;90.00;;;;;;5052557;28;20205;-64
2022/01/05 05:46:56;;;;;;;2.50;2.30;;;2.80;90.30;;;;;;5052294;28;20205;-62
2022/01/05 05:49:25;;;;;;;2.80;2.65;;;2.70;90.80;;;;;;5052457;28;20293;-63
2022/01/05 05:51:51;;;;;;;2.50;2.33;;;2.60;91.00;;;;;;5052359;28;20433;-66
2022/01/05 05:54:18;;;;;;;3.00;2.60;;;2.60;91.40;;;;;;5052390;28;20293;-68
2022/01/05 05:56:45;;;;;;;2.75;2.60;;;2.50;91.40;;;;;;5051027;28;20699;-65
2022/01/05 05:59:12;;;;;;;6.35;4.28;;;2.50;91.60;;;;;;5052431;28;20209;-66
2022/01/05 06:01:39;;;;;;;2.53;2.20;;;2.50;91.60;;;;;;5052280;28;20232;-64
2022/01/05 06:04:06;;;;;;;2.35;2.00;;;2.40;91.70;;;;;;5055537;28;20625;-68
2022/01/05 06:06:34;;;;;;;2.35;2.00;;;2.40;92.10;;;;;;5056183;28;20630;-64
2022/01/05 06:09:01;;;;;;;2.45;2.35;;;2.40;92.10;;;;;;5056027;28;20229;-68
2022/01/05 06:11:28;;;;;;;2.63;2.42;;;2.40;92.30;;;;;;5054568;28;20239;-70
2022/01/05 06:13:56;;;;;;;2.65;2.30;;;2.50;92.40;;;;;;5056108;28;20205;-71
2022/01/05 06:16:24;;;;;;;2.63;2.10;;;2.60;92.20;;;;;;5055687;28;20239;-69
2022/01/05 06:18:50;;;;;;;2.53;2.20;;;2.60;92.00;;;;;;5055881;28;20197;-69
2022/01/05 06:21:17;;;;;;;2.38;2.03;;;2.70;92.00;;;;;;5055604;28;20225;-62
2022/01/05 06:23:46;;;;;;;2.20;2.00;;;2.70;92.10;;;;;;5055840;28;20240;-73
2022/01/05 06:26:12;;;;;;;3.72;2.50;;;2.80;91.70;;;;;;5054535;28;20534;-63
2022/01/05 06:28:39;;;;;;;2.40;2.10;;;2.80;91.50;;;;;;5055581;28;20201;-62
2022/01/05 06:31:06;;;;;;;1.98;1.88;;;2.80;91.40;;;;;;5055600;28;20288;-68
2022/01/05 06:33:33;;;;;;;2.40;2.20;;;2.80;91.10;;;;;;5055287;28;20823;-67
2022/01/05 06:36:00;;;;;;;3.90;2.40;;;2.80;91.10;;;;;;5055406;28;20323;-64
2022/01/05 06:38:27;;;;;;;2.30;2.20;;;2.80;91.30;;;;;;5055518;28;20201;-61
2022/01/05 06:40:55;;;;;;;2.58;2.38;;;2.70;91.40;;;;;;5054218;28;20208;-70
2022/01/05 06:43:22;;;;;;;2.10;1.90;;;2.60;91.50;;;;;;5055360;28;20205;-70
2022/01/05 06:45:49;;;;;;;2.85;2.65;;;2.60;91.80;;;;;;5055372;28;20296;-61
2022/01/05 06:48:15;;;;;;;2.13;2.03;;;2.60;91.80;;;;;;5055107;28;20236;-67
2022/01/05 06:50:42;;;;;;;2.65;2.13;;;2.60;91.50;;;;;;5055285;28;20289;-64
2022/01/05 06:53:09;;;;;;;2.70;2.20;;;2.60;91.40;;;;;;5055307;28;20686;-68
2022/01/05 06:55:36;;;;;;;3.15;2.33;;;2.60;91.40;;;;;;5055045;28;20307;-61
2022/01/05 06:58:04;;;;;;;1.92;1.83;;;2.60;91.30;;;;;;5053872;28;20211;-63
2022/01/05 07:00:32;;;;;;;2.60;2.25;;;2.60;91.40;;;;;;5055182;28;20198;-70
2022/01/05 07:02:59;;;;;;;2.30;2.20;;;2.70;91.40;;;;;;5054789;28;20197;-66
2022/01/05 07:05:25;;;;;;;2.20;2.10;;;2.70;91.40;;;;;;5054930;28;20205;-68
2022/01/05 07:07:52;;;;;;;2.38;2.17;;;2.80;91.40;;;;;;5054910;28;20202;-68
2022/01/05 07:10:19;;;;;;;2.25;2.05;;;2.90;91.40;;;;;;5054765;28;20264;-72
2022/01/05 07:12:46;;;;;;;2.42;2.20;;;2.90;91.20;;;;;;5053592;28;20205;-67
2022/01/05 07:15:15;;;;;;;2.33;2.13;;;2.90;91.50;;;;;;5054371;28;20201;-68
2022/01/05 07:17:42;;;;;;;5.15;3.30;;;2.90;91.30;;;;;;5054584;28;20567;-62
2022/01/05 07:20:11;;;;;;;2.50;2.30;;;2.90;91.30;;;;;;5054653;28;20293;-71
2022/01/05 07:22:38;;;;;;;2.80;2.60;;;2.90;91.10;;;;;;5054602;28;20212;-72
2022/01/05 07:25:06;;;;;;;3.10;2.80;;;2.80;90.60;;;;;;5054736;28;20201;-62
2022/01/05 07:27:33;;;;;;;3.00;2.80;;;2.50;91.00;;;;;;5053351;28;20201;-69
2022/01/05 07:30:00;;;;;;;3.95;2.80;;;2.40;91.70;;;;;;5054382;28;20229;-62
2022/01/05 07:32:28;;;;;;;4.38;3.85;;;2.30;91.40;;;;;;5054426;28;20205;-73
2022/01/05 07:34:56;;;;;;;3.33;3.13;;;2.30;91.70;;;;;;5054541;28;20219;-66
2022/01/05 07:37:22;;;;;;;2.95;2.75;;;2.20;91.70;;;;;;5054356;28;20654;-64
2022/01/05 07:39:49;;;;;;;4.20;3.10;;;2.10;92.00;;;;;;5054351;28;20566;-67
2022/01/05 07:42:16;;;;;;;3.83;3.20;;;2.10;92.20;;;;;;5052885;28;20197;-61
2022/01/05 07:44:43;;;;;;;3.70;3.40;;;2.00;91.50;;;;;;5054202;28;20205;-61
2022/01/05 07:47:11;;;;;;;4.10;3.80;;;1.90;90.60;;;;;;5054129;28;20579;-58
2022/01/05 07:49:39;;;;;;;3.38;3.08;;;1.70;90.10;;;;;;5054176;28;20203;-59
2022/01/05 07:52:07;;;;;;;3.92;3.63;;;1.60;90.40;;;;;;5054071;28;20561;-65
2022/01/05 07:54:35;;;;;;;4.50;4.10;;;1.60;91.50;;;;;;5053977;28;20208;-63
2022/01/05 07:57:02;;;;;;;4.60;4.20;;;1.60;91.10;;;;;;5052719;28;20587;-66
2022/01/05 07:59:29;;;;;;;4.15;3.75;;;1.70;91.40;;;;;;5053931;28;20238;-63
2022/01/05 08:01:55;;;;;;;4.78;4.35;;;1.60;90.90;;;;;;5053800;28;20205;-63
2022/01/05 08:04:22;;;;;;;5.25;4.75;;;1.60;90.50;;;;;;5053892;28;20201;-62
2022/01/05 08:06:50;;;;;;;5.18;4.78;;;1.50;90.40;;;;;;5054006;28;20209;-59
2022/01/05 08:09:17;;;;;;;4.90;4.50;;;1.50;90.90;;;;;;5053884;28;20635;-64
2022/01/05 08:11:44;;;;;;;9.13;4.85;;;1.50;90.80;;;;;;5052356;28;20229;-66
2022/01/05 08:14:11;;;;;;;5.82;5.25;;;1.50;90.90;;;;;;5053772;28;20205;-60
2022/01/05 08:16:38;;;;;;;6.57;5.82;;;1.50;90.80;;;;;;5053352;28;20316;-63
2022/01/05 08:19:05;;;;;;;9.88;4.93;;;1.40;90.90;;;;;;5053563;28;20239;-62
2022/01/05 08:21:32;;;;;;;5.40;4.82;;;1.40;90.60;;;;;;5053331;28;20592;-62
2022/01/05 08:24:00;;;;;;;5.47;4.97;;;1.40;90.00;;;;;;5053586;28;20215;-64
2022/01/05 08:26:27;;;;;;;6.57;6.07;;;1.30;89.30;;;;;;5051253;28;20574;-69
2022/01/05 08:28:55;;;;;;;6.53;5.93;;;1.20;89.80;;;;;;5053360;28;20208;-61
2022/01/05 08:31:22;;;;;;;4.45;4.00;;;1.30;90.20;;;;;;5053478;28;20205;-72
2022/01/05 08:33:49;;;;;;;7.80;5.80;;;1.30;90.20;;;;;;5053373;28;20205;-64
2022/01/05 08:36:16;;;;;;;6.68;5.40;;;1.40;89.70;;;;;;5053164;28;20320;-66
2022/01/05 08:38:43;;;;;;;6.43;4.75;;;1.40;88.90;;;;;;5053238;28;20212;-64
2022/01/05 08:41:11;;;;;;;5.72;5.07;;;1.40;88.30;;;;;;5051811;28;20624;-62
2022/01/05 08:43:38;;;;;;;7.63;6.00;;;1.40;88.40;;;;;;5053176;28;20285;-60
2022/01/05 08:46:05;;;;;;;5.40;4.95;;;1.30;87.40;;;;;;5053226;28;20205;-64
2022/01/05 08:48:32;;;;;;;6.78;5.30;;;1.30;88.20;;;;;;5052981;28;20205;-60
2022/01/05 08:50:59;;;;;;;8.05;5.13;;;1.20;87.70;;;;;;5053096;28;20208;-65
2022/01/05 08:53:26;;;;;;;5.50;5.20;;;1.10;89.00;;;;;;5052898;28;20204;-62
2022/01/05 08:55:53;;;;;;;6.20;5.63;;;1.10;88.70;;;;;;5051780;28;20225;-69
2022/01/05 08:58:22;;;;;;;6.60;6.10;;;1.00;87.20;;;;;;5053364;28;20201;-68
2022/01/05 09:00:49;;;;;;;6.18;5.68;;;1.10;87.00;;;;;;5052980;28;20201;-63
2022/01/05 09:03:17;;;;;;;7.85;6.03;;;1.10;86.80;;;;;;5052759;28;20201;-68
2022/01/05 09:05:45;;;;;;;6.43;5.93;;;1.10;86.60;;;;;;5052796;28;20209;-64
2022/01/05 09:08:12;;;;;;;5.82;5.32;;;1.20;86.60;;;;;;5052685;28;20205;-60
2022/01/05 09:10:39;;;;;;;6.38;4.95;;;1.20;85.80;;;;;;5052637;28;20243;-64
2022/01/05 09:13:09;;;;;;;7.65;5.13;;;1.30;85.90;;;;;;5051927;28;20240;-68
2022/01/05 09:15:37;;;;;;;5.10;4.80;;;1.30;85.40;;;;;;5052739;28;20266;-69
2022/01/05 09:18:04;;;;;;;6.72;4.93;;;1.30;86.30;;;;;;5052607;28;20223;-72
2022/01/05 09:20:32;;;;;;;6.93;5.22;;;1.30;86.30;;;;;;5052501;28;20691;-69
2022/01/05 09:22:59;;;;;;;7.40;5.13;;;1.30;85.50;;;;;;5052630;28;20201;-65
2022/01/05 09:25:26;;;;;;;6.18;4.70;;;1.20;85.00;;;;;;5052640;28;20232;-64
2022/01/05 09:27:53;;;;;;;6.80;6.15;;;1.30;85.90;;;;;;5051324;28;20297;-68
2022/01/05 09:30:22;;;;;;;4.90;4.60;;;1.20;83.70;;;;;;5052535;28;20232;-61
2022/01/05 09:32:50;;;;;;;6.65;5.85;;;1.30;84.30;;;;;;5052414;28;20205;-66
2022/01/05 09:35:20;;;;;;;6.43;5.93;;;1.30;84.10;;;;;;5052600;28;20632;-70
2022/01/05 09:38:06;;;;;;;5.80;5.40;;;1.20;83.90;;;;;;5055322;28;20233;-69
2022/01/05 09:43:17;;;;;;;5.78;5.38;;;1.50;84.60;;;;;;5056608;28;20570;-67
2022/01/05 09:46:00;;;;;;;7.20;5.38;;;1.40;83.50;;;;;;5056304;28;20205;-69
2022/01/05 09:48:41;;;;;;;5.78;5.38;;;1.40;83.80;;;;;;5056265;28;20219;-63
2022/01/05 09:51:12;;;;;;;5.50;5.00;;;1.50;83.30;;;;;;5056266;28;20209;-66
2022/01/05 09:53:39;;;;;;;5.57;5.05;;;1.50;82.50;;;;;;5056276;28;20607;-62
2022/01/05 09:56:07;;;;;;;8.43;6.57;;;1.70;83.90;;;;;;5054636;28;20499;-65
2022/01/05 09:58:36;;;;;;;7.70;4.80;;;1.80;83.30;;;;;;5056160;28;20578;-64
2022/01/05 10:01:05;;;;;;;7.47;6.00;;;2.00;83.30;;;;;;5056172;28;20553;-60
2022/01/05 10:03:33;;;;;;;6.13;5.80;;;2.00;80.70;;;;;;5055965;28;20202;-60
2022/01/05 10:06:01;;;;;;;6.30;5.80;;;1.90;80.80;;;;;;5055957;28;20561;-67
2022/01/05 10:08:28;;;;;;;5.60;4.60;;;2.00;81.60;;;;;;5056027;28;20255;-58
2022/01/05 10:10:55;;;;;;;5.57;5.22;;;2.00;81.40;;;;;;5054509;28;20229;-60
2022/01/05 10:13:22;;;;;;;4.40;4.03;;;2.10;82.00;;;;;;5055871;28;20201;-64
2022/01/05 10:15:49;;;;;;;5.10;4.60;;;2.20;82.30;;;;;;5055804;28;20301;-63
2022/01/05 10:18:17;;;;;;;5.00;4.30;;;2.30;81.30;;;;;;5055773;28;20325;-62
2022/01/05 10:20:58;;;;;;;4.97;4.45;;;2.30;81.00;;;;;;5055717;28;20283;-56
2022/01/05 10:23:41;;;;;;;4.70;4.30;;;2.40;82.40;;;;;;5055666;28;20240;-65
2022/01/05 10:26:23;;;;;;;5.43;5.00;;;2.60;82.30;;;;;;5054525;28;20201;-60
2022/01/05 10:28:50;;;;;;;4.55;4.15;;;2.40;80.10;;;;;;5055839;28;20547;-63
2022/01/05 10:31:19;;;;;;;5.10;4.60;;;2.30;80.20;;;;;;5055752;28;20640;-65
2022/01/05 10:33:46;;;;;;;6.30;5.88;;;2.10;78.40;;;;;;5055420;28;20309;-56
2022/01/05 10:36:14;;;;;;;7.57;7.07;;;1.80;74.50;;;;;;5055454;28;20202;-55
2022/01/05 10:38:51;;;;;;;5.18;4.78;;;1.70;76.00;;;;;;5055627;28;20201;-55
2022/01/05 10:41:20;;;;;;;7.45;6.85;;;1.50;75.50;;;;;;5054154;28;20212;-62
2022/01/05 10:44:10;;;;;;;8.13;7.35;;;1.40;75.60;;;;;;5055432;28;20197;-55
2022/01/05 10:46:38;;;;;;;8.32;7.18;;;1.50;76.10;;;;;;5055352;28;20690;-55
2022/01/05 10:49:06;;;;;;;6.88;6.15;;;1.80;77.00;;;;;;5054212;28;20590;-55
2022/01/05 10:51:37;;;;;;;6.47;5.97;;;2.00;74.90;;;;;;5055280;28;20305;-60
2022/01/05 10:54:22;;;;;;;6.95;6.40;;;2.20;76.20;;;;;;5055235;28;20736;-63
2022/01/05 10:56:50;;;;;;;8.30;6.60;;;2.50;75.10;;;;;;5053680;28;20229;-62
2022/01/05 10:59:25;;;;;;;7.15;6.80;;;2.40;73.70;;;;;;5055164;28;20205;-54
2022/01/05 11:01:52;;;;;;;8.30;7.13;;;2.20;73.40;;;;;;5055087;28;20228;-56
2022/01/05 11:04:20;;;;;;;7.97;7.22;;;2.20;74.80;;;;;;5054754;28;20301;-62
2022/01/05 11:07:02;;;;;;;7.15;6.60;;;2.30;75.00;;;;;;5054971;28;20233;-55
2022/01/05 11:09:30;;;;;;;7.45;7.00;;;2.60;73.10;;;;;;5054843;28;20252;-67
2022/01/05 11:11:58;;;;;;;7.03;6.63;;;2.70;72.90;;;;;;5053469;28;20760;-61
2022/01/05 11:14:30;;;;;;;6.15;5.65;;;3.00;73.40;;;;;;5054855;28;20211;-57
2022/01/05 11:16:58;;;;;;;7.28;6.85;;;3.10;73.00;;;;;;5054744;28;20587;-63
2022/01/05 11:19:28;;;;;;;9.07;7.05;;;3.60;69.60;;;;;;5054403;28;20334;-57
2022/01/05 11:22:05;;;;;;;8.60;8.00;;;4.10;66.10;;;;;;5054557;28;20770;-66
2022/01/05 11:24:35;;;;;;;8.20;7.65;;;3.70;67.80;;;;;;5054679;28;20212;-60
2022/01/05 11:27:03;;;;;;;7.65;7.20;;;3.50;69.10;;;;;;5053123;28;20656;-65
2022/01/05 11:29:30;;;;;;;9.70;8.85;;;4.00;70.50;;;;;;5054504;28;20664;-65
2022/01/05 11:31:57;;;;;;;8.15;7.75;;;4.30;68.00;;;;;;5054363;28;20543;-56
2022/01/05 11:34:27;;;;;;;8.85;8.20;;;4.30;66.40;;;;;;5054397;28;20213;-58
2022/01/05 11:36:54;;;;;;;9.20;8.40;;;4.20;65.80;;;;;;5054221;28;20229;-56
2022/01/05 11:39:22;;;;;;;8.18;7.55;;;3.80;66.50;;;;;;5054300;28;20244;-57
2022/01/05 11:41:51;;;;;;;7.30;6.93;;;3.40;66.70;;;;;;5052991;28;20197;-60
2022/01/05 11:44:18;;;;;;;8.48;7.95;;;3.20;70.20;;;;;;5054283;28;20207;-64
2022/01/05 11:46:46;;;;;;;12.27;7.93;;;4.00;68.20;;;;;;5054076;28;20211;-60
2022/01/05 11:49:15;;;;;;;7.80;7.40;;;4.00;66.10;;;;;;5053938;28;20201;-59
2022/01/05 11:51:51;;;;;;;9.02;8.18;;;4.20;66.90;;;;;;5054086;28;20296;-55
2022/01/05 11:54:23;;;;;;;9.10;8.20;;;5.00;66.00;;;;;;5053925;28;20301;-58
2022/01/05 11:56:52;;;;;;;9.70;8.75;;;6.30;67.60;;;;;;5052637;28;20221;-56
2022/01/05 11:59:33;;;;;;;6.70;6.35;;;8.10;64.90;;;;;;5053899;28;20198;-60
2022/01/05 12:02:07;;;;;;;8.65;7.95;;;9.50;59.80;;;;;;5053971;28;20260;-66
2022/01/05 12:04:58;;;;;;;9.27;8.60;;;11.00;57.30;;;;;;5053824;28;20206;-60
2022/01/05 12:07:37;;;;;;;9.27;8.52;;;11.50;46.90;;;;;;5053796;28;20557;-55
2022/01/05 12:10:16;;;;;;;9.02;8.20;;;11.00;52.30;;;;;;5053658;28;20197;-56
2022/01/05 12:12:57;;;;;;;9.27;8.43;;;10.40;48.90;;;;;;5052401;28;20205;-63
2022/01/05 12:15:50;;;;;;;10.27;9.55;;;9.90;51.30;;;;;;5053745;28;20202;-57
2022/01/05 12:18:25;;;;;;;8.25;7.85;;;9.80;52.40;;;;;;5053290;28;20237;-57
2022/01/05 12:20:53;;;;;;;9.02;8.43;;;10.40;50.20;;;;;;5053507;28;20607;-63
2022/01/05 12:23:24;;;;;;;7.47;7.03;;;10.20;48.10;;;;;;5053625;28;20232;-59
2022/01/05 12:26:19;;;;;;;9.68;8.90;;;10.70;53.20;;;;;;5052161;28;20209;-67
2022/01/05 12:28:54;;;;;;;7.50;5.90;;;11.20;45.40;;;;;;5029305;28;20201;-61
2022/01/05 12:32:09;;;;;;;8.48;7.68;;;9.60;47.50;;;;;;5053422;28;20201;-62
2022/01/05 12:34:56;;;;;;;8.90;8.50;;;7.80;53.20;;;;;;5053041;28;20224;-56
2022/01/05 12:37:41;;;;;;;8.48;8.00;;;5.70;58.60;;;;;;5053170;28;20717;-63
2022/01/05 12:40:30;;;;;;;7.15;6.45;;;5.50;61.70;;;;;;5053203;28;20205;-60
2022/01/05 12:43:34;;;;;;;9.57;8.80;;;6.10;59.60;;;;;;5051876;28;20297;-57
2022/01/05 12:46:05;;;;;;;6.50;6.10;;;6.50;57.80;;;;;;5050822;28;20264;-61
2022/01/05 12:49:04;;;;;;;7.10;6.20;;;7.00;56.90;;;;;;5053074;28;20201;-61
2022/01/05 12:51:43;;;;;;;8.35;7.80;;;7.20;58.20;;;;;;5052929;28;20214;-55
2022/01/05 12:54:12;;;;;;;7.03;6.63;;;7.20;56.00;;;;;;5053045;28;20205;-61
2022/01/05 12:56:42;;;;;;;8.43;7.80;;;7.50;56.40;;;;;;5051746;28;20255;-60
2022/01/05 12:59:14;;;;;;;8.45;7.80;;;7.80;55.40;;;;;;5052859;28;20228;-63
2022/01/05 13:01:43;;;;;;;7.72;7.07;;;7.20;54.30;;;;;;5052779;28;20292;-55
2022/01/05 13:04:12;;;;;;;7.82;7.13;;;6.40;56.40;;;;;;5052788;28;20539;-59
2022/01/05 13:06:41;;;;;;;8.10;7.38;;;5.80;57.50;;;;;;5052710;28;20205;-59
2022/01/05 13:09:12;;;;;;;9.30;8.70;;;5.40;60.70;;;;;;5052981;28;20229;-62